Time;durP1;ratioP1;P1;durP2;ratioP2;P2;SDS_P1;SDS_P2;PMS_P1;PMS_P2;Temp;Humidity;BMP_temperature;BMP_pressure;BME280_temperature;BME280_humidity;BME280_pressure;Samples;Min_cycle;Max_cycle;Signal;HPM_P1;HPM_P2
2021/07/20 00:01:49;;;;;;;7.00;4.60;;;;;;;23.99;48.94;99241.41;5048994;28;20025;-22
2021/07/20 00:04:14;;;;;;;10.48;4.80;;;;;;;23.80;49.54;99239.09;5049147;28;20037;-22
2021/07/20 00:06:40;;;;;;;7.70;4.38;;;;;;;23.88;49.30;99238.25;5048949;28;20025;-22
2021/07/20 00:09:06;;;;;;;13.25;6.43;;;;;;;24.01;49.16;99242.69;5048917;28;20033;-22
2021/07/20 00:11:33;;;;;;;10.93;5.38;;;;;;;23.29;51.39;99233.47;5048929;28;20061;-22
2021/07/20 00:13:58;;;;;;;9.50;5.63;;;;;;;23.72;50.54;99235.25;5049075;28;20060;-22
2021/07/20 00:16:24;;;;;;;10.57;4.72;;;;;;;24.18;49.74;99239.03;5048955;28;20037;-22
2021/07/20 00:18:49;;;;;;;8.70;5.13;;;;;;;24.34;48.70;99225.66;5048737;28;20036;-22
2021/07/20 00:21:15;;;;;;;10.02;4.80;;;;;;;23.75;50.18;99231.09;5049146;28;20722;-22
2021/07/20 00:23:40;;;;;;;9.90;5.45;;;;;;;23.66;50.31;99215.59;5049041;28;20036;-22
2021/07/20 00:26:06;;;;;;;9.98;5.18;;;;;;;24.05;49.32;99240.88;5048637;28;20025;-22
2021/07/20 00:28:31;;;;;;;15.90;6.38;;;;;;;23.18;52.17;99233.00;5048334;28;20037;-22
2021/07/20 00:30:57;;;;;;;13.57;6.43;;;;;;;23.23;51.99;99242.91;5048513;28;20025;-22
2021/07/20 00:33:23;;;;;;;10.95;5.40;;;;;;;23.25;52.03;99240.66;5048432;28;20044;-22
2021/07/20 00:35:48;;;;;;;13.27;6.85;;;;;;;23.39;51.94;99248.66;5048663;28;20064;-22
2021/07/20 00:38:15;;;;;;;9.77;5.85;;;;;;;23.21;52.08;99251.41;5048389;28;20037;-22
2021/07/20 00:40:40;;;;;;;13.45;5.97;;;;;;;23.25;52.11;99236.06;5048086;28;20526;-22
2021/07/20 00:43:06;;;;;;;12.63;7.55;;;;;;;23.35;51.11;99239.53;5048403;28;20522;-22
2021/07/20 00:45:32;;;;;;;13.90;8.10;;;;;;;23.79;50.23;99251.91;5048347;28;20060;-22
2021/07/20 00:47:58;;;;;;;13.00;6.90;;;;;;;22.93;52.54;99255.59;5047990;28;20033;-22
2021/07/20 00:50:25;;;;;;;10.52;6.90;;;;;;;22.75;53.35;99243.91;5047761;28;20052;-22
2021/07/20 00:52:51;;;;;;;10.13;6.10;;;;;;;22.63;53.88;99249.97;5048175;28;20087;-22
2021/07/20 00:55:17;;;;;;;8.90;6.03;;;;;;;22.69;53.49;99248.69;5048027;28;20443;-22
2021/07/20 00:57:42;;;;;;;19.88;9.98;;;;;;;23.27;52.07;99255.56;5048287;28;20760;-22
2021/07/20 01:00:10;;;;;;;18.15;10.25;;;;;;;23.25;52.05;99229.78;5030384;28;20103;-22
2021/07/20 01:02:35;;;;;;;21.10;10.73;;;;;;;23.61;51.02;99259.31;5030235;28;20075;-22
2021/07/20 01:05:02;;;;;;;21.00;11.60;;;;;;;23.01;53.24;99257.50;5048250;28;20064;-22
2021/07/20 01:07:27;;;;;;;17.20;10.30;;;;;;;23.20;52.75;99249.81;5048063;28;20029;-22
2021/07/20 01:09:53;;;;;;;18.02;8.40;;;;;;;23.39;51.57;99235.84;5029926;28;20059;-22
2021/07/20 01:12:20;;;;;;;9.55;6.97;;;;;;;23.27;52.23;99254.75;5012793;28;20389;-22
2021/07/20 01:14:45;;;;;;;10.52;6.25;;;;;;;23.71;51.07;99263.59;5013515;28;20048;-22
2021/07/20 01:17:11;;;;;;;9.85;6.32;;;;;;;23.75;50.83;99258.31;5047517;28;20036;-22
2021/07/20 01:19:37;;;;;;;11.43;6.68;;;;;;;23.75;51.37;99255.59;5029941;28;20028;-22
2021/07/20 01:22:04;;;;;;;10.77;6.88;;;;;;;23.46;51.58;99262.56;5029870;28;20036;-22
2021/07/20 01:24:30;;;;;;;9.65;6.40;;;;;;;23.46;51.89;99248.97;5047399;28;20086;-22
2021/07/20 01:26:55;;;;;;;12.02;7.00;;;;;;;23.42;51.78;99264.34;5049828;28;20036;-22
2021/07/20 01:29:21;;;;;;;17.15;9.55;;;;;;;23.40;52.07;99270.09;5047386;28;20064;-23
2021/07/20 01:31:46;;;;;;;15.82;9.90;;;;;;;22.57;54.06;99270.28;5029563;28;20101;-22
2021/07/20 01:34:13;;;;;;;13.70;8.82;;;;;;;21.85;56.45;99270.38;5013196;28;20043;-22
2021/07/20 01:36:39;;;;;;;12.80;7.90;;;;;;;21.83;56.28;99263.69;5029449;28;20025;-22
2021/07/20 01:39:06;;;;;;;19.45;10.45;;;;;;;22.23;55.54;99279.91;5047118;28;20087;-22
2021/07/20 01:41:31;;;;;;;16.73;9.98;;;;;;;22.43;54.65;99264.97;5047416;28;20025;-22
2021/07/20 01:43:59;;;;;;;17.25;9.65;;;;;;;22.63;54.84;99298.91;5047363;28;20086;-22
2021/07/20 01:46:29;;;;;;;12.90;8.40;;;;;;;22.67;54.43;99289.78;5046991;28;20036;-22
2021/07/20 01:48:55;;;;;;;11.30;7.82;;;;;;;22.41;55.52;99294.38;5029020;28;20072;-22
2021/07/20 01:51:21;;;;;;;11.57;7.88;;;;;;;22.02;56.76;99294.06;5029246;28;20067;-22
2021/07/20 01:53:47;;;;;;;11.70;7.63;;;;;;;22.04;56.97;99283.69;5029379;28;20036;-22
2021/07/20 01:56:13;;;;;;;11.73;9.00;;;;;;;22.25;57.10;99299.44;5013004;28;20025;-22
2021/07/20 01:58:42;;;;;;;14.77;9.18;;;;;;;22.34;56.54;99304.91;5046979;28;20040;-22
2021/07/20 02:01:14;;;;;;;23.23;9.75;;;;;;;22.42;56.56;99287.84;5029624;28;20515;-22
2021/07/20 02:08:59;;;;;;;22.80;10.85;;;;;;;22.70;56.08;99285.66;5047327;28;20051;-22
2021/07/20 02:11:28;;;;;;;15.35;11.73;;;;;;;22.53;56.89;99302.72;5029023;28;20401;-22
2021/07/20 02:13:57;;;;;;;18.75;12.15;;;;;;;21.96;58.39;99308.91;5013653;28;20037;-22
2021/07/20 02:16:26;;;;;;;18.85;12.95;;;;;;;21.79;59.84;99333.25;5029299;28;20033;-23
2021/07/20 02:18:54;;;;;;;16.95;12.07;;;;;;;21.42;61.02;99308.13;5013349;28;20029;-22
2021/07/20 02:21:20;;;;;;;22.95;13.80;;;;;;;21.27;61.82;99318.22;5029396;28;20120;-22
2021/07/20 02:23:49;;;;;;;19.70;14.13;;;;;;;20.61;63.36;99301.56;5050018;28;20025;-22
2021/07/20 02:26:14;;;;;;;24.45;15.95;;;;;;;20.53;64.42;99320.41;5033046;28;20404;-22
2021/07/20 02:28:40;;;;;;;27.48;17.67;;;;;;;20.49;65.04;99317.50;5016923;28;20029;-22
2021/07/20 02:31:05;;;;;;;22.60;16.00;;;;;;;20.44;64.80;99302.16;5050651;28;20052;-22
2021/07/20 02:33:31;;;;;;;21.73;14.75;;;;;;;20.55;65.12;99323.63;5016870;28;20041;-22
2021/07/20 02:35:56;;;;;;;25.27;14.25;;;;;;;20.86;63.75;99316.47;5016661;28;20489;-22
2021/07/20 02:38:22;;;;;;;23.17;14.55;;;;;;;20.90;63.54;99323.97;5016844;28;20105;-22
2021/07/20 02:40:48;;;;;;;19.58;13.88;;;;;;;20.92;62.65;99308.22;5016240;28;20563;-22
2021/07/20 02:43:13;;;;;;;17.60;13.38;;;;;;;21.24;61.47;99320.75;5016702;28;20059;-22
2021/07/20 02:45:39;;;;;;;25.95;16.15;;;;;;;20.86;62.29;99305.63;5032548;28;20497;-23
2021/07/20 02:48:05;;;;;;;29.70;17.27;;;;;;;20.90;62.00;99316.66;5032976;28;20122;-22
2021/07/20 02:50:32;;;;;;;25.13;17.55;;;;;;;20.47;63.25;99320.53;5050325;28;20048;-22
2021/07/20 02:52:57;;;;;;;46.17;22.90;;;;;;;20.60;63.33;99334.41;5032630;28;20106;-22
2021/07/20 02:55:22;;;;;;;43.95;22.38;;;;;;;20.56;63.69;99336.06;5033090;28;20040;-22
2021/07/20 02:57:48;;;;;;;28.38;17.50;;;;;;;20.71;63.38;99337.69;5032613;28;20033;-22
2021/07/20 03:00:14;;;;;;;21.23;15.68;;;;;;;20.76;62.77;99330.25;5016087;28;20036;-22
2021/07/20 03:02:45;;;;;;;28.40;18.38;;;;;;;20.82;63.36;99339.88;5050192;28;20017;-22
2021/07/20 03:05:14;;;;;;;45.65;23.83;;;;;;;20.90;63.08;99342.94;5032825;28;20404;-22
2021/07/20 03:07:42;;;;;;;29.65;17.40;;;;;;;21.03;62.69;99331.28;5032331;28;20029;-22
2021/07/20 03:10:08;;;;;;;60.90;18.48;;;;;;;21.34;61.49;99344.13;5032515;28;20039;-22
2021/07/20 03:12:33;;;;;;;19.75;14.95;;;;;;;21.36;60.66;99337.28;5015345;28;20040;-22
2021/07/20 03:14:59;;;;;;;19.05;14.07;;;;;;;21.57;59.82;99351.16;5015628;28;20033;-22
2021/07/20 03:17:25;;;;;;;22.75;14.65;;;;;;;21.01;61.37;99317.25;5032135;28;20028;-22
2021/07/20 03:19:51;;;;;;;27.30;17.25;;;;;;;21.49;59.80;99335.63;5032366;28;20040;-22
2021/07/20 03:22:16;;;;;;;20.30;13.80;;;;;;;21.25;60.54;99353.00;5032170;28;20052;-22
2021/07/20 03:24:42;;;;;;;21.60;13.38;;;;;;;21.23;59.88;99351.72;5015869;28;20040;-22
2021/07/20 03:27:08;;;;;;;18.27;12.85;;;;;;;21.04;61.29;99351.84;5032048;28;20036;-22
2021/07/20 03:29:40;;;;;;;24.83;14.02;;;;;;;20.95;61.33;99349.06;5015786;28;20817;-23
2021/07/20 03:32:08;;;;;;;26.08;12.85;;;;;;;21.39;59.67;99346.69;5016855;28;20025;-23
2021/07/20 03:34:34;;;;;;;20.95;13.50;;;;;;;21.79;58.78;99354.97;5014432;28;20029;-22
2021/07/20 03:36:59;;;;;;;19.42;12.48;;;;;;;21.87;58.43;99356.94;5049674;28;20043;-22
2021/07/20 03:39:25;;;;;;;16.35;13.15;;;;;;;22.19;57.58;99363.13;5016178;28;20033;-22
2021/07/20 03:41:50;;;;;;;18.67;13.25;;;;;;;22.12;57.60;99351.94;5031762;28;20025;-22
2021/07/20 03:44:15;;;;;;;20.02;13.13;;;;;;;22.20;57.41;99359.31;5031862;28;20036;-22
2021/07/20 03:46:41;;;;;;;17.52;13.30;;;;;;;21.48;59.53;99358.44;5031346;28;20086;-23
2021/07/20 03:49:07;;;;;;;19.83;13.25;;;;;;;21.10;61.31;99358.75;5031065;28;20061;-22
2021/07/20 03:51:32;;;;;;;21.42;14.23;;;;;;;21.18;61.09;99344.47;5049185;28;20118;-22
2021/07/20 03:54:00;;;;;;;19.58;14.00;;;;;;;21.41;61.12;99369.72;5031511;28;20052;-23
2021/07/20 03:56:25;;;;;;;20.95;13.85;;;;;;;21.21;61.78;99362.84;5031534;28;20115;-23
2021/07/20 03:58:51;;;;;;;22.20;14.05;;;;;;;21.31;61.33;99361.00;5014957;28;20040;-22
2021/07/20 04:01:16;;;;;;;18.23;14.32;;;;;;;21.37;60.96;99354.34;5031433;28;20044;-22
2021/07/20 04:03:42;;;;;;;16.85;14.60;;;;;;;21.51;60.79;99368.66;5014741;28;20048;-22
2021/07/20 04:06:08;;;;;;;17.30;14.30;;;;;;;21.79;60.37;99382.13;5031273;28;20041;-22
2021/07/20 04:08:35;;;;;;;20.17;15.75;;;;;;;21.60;60.65;99377.69;5048756;28;20484;-22
2021/07/20 04:11:00;;;;;;;18.90;14.65;;;;;;;21.80;59.61;99367.41;5031096;28;20405;-22
2021/07/20 04:13:26;;;;;;;21.40;14.85;;;;;;;22.04;58.39;99383.34;5014922;28;20554;-22
2021/07/20 04:16:01;;;;;;;24.00;18.17;;;;;;;22.17;57.70;99359.94;5031525;28;20517;-22
2021/07/20 04:18:28;;;;;;;24.08;19.63;;;;;;;22.36;57.58;99371.38;5031817;28;20036;-22
2021/07/20 04:20:55;;;;;;;32.17;24.03;;;;;;;22.35;57.73;99377.94;5048908;28;20029;-22
2021/07/20 04:23:21;;;;;;;39.03;28.05;;;;;;;22.77;57.05;99389.25;5031190;28;20759;-22
2021/07/20 04:25:47;;;;;;;37.90;31.10;;;;;;;22.64;57.07;99376.59;5048424;28;20508;-22
2021/07/20 04:28:16;;;;;;;47.88;33.00;;;;;;;22.93;56.49;99391.53;5030764;28;20037;-22
2021/07/20 04:30:42;;;;;;;43.53;34.40;;;;;;;22.85;56.98;99385.75;5048367;28;20035;-23
2021/07/20 04:33:08;;;;;;;43.40;33.20;;;;;;;23.17;56.00;99370.13;5048247;28;20037;-22
2021/07/20 04:35:33;;;;;;;41.35;33.80;;;;;;;23.19;56.70;99395.09;5048227;28;20426;-22
2021/07/20 04:37:59;;;;;;;41.08;32.83;;;;;;;23.02;56.90;99378.75;5030749;28;20032;-22
2021/07/20 04:40:25;;;;;;;43.85;33.50;;;;;;;23.08;57.47;99401.16;5030485;28;20412;-23
2021/07/20 04:42:50;;;;;;;38.88;31.17;;;;;;;23.19;57.30;99386.94;5030595;28;20037;-22
2021/07/20 04:45:16;;;;;;;38.80;33.25;;;;;;;23.09;57.56;99400.84;5030421;28;20029;-23
2021/07/20 04:47:42;;;;;;;38.88;32.33;;;;;;;23.16;57.92;99395.72;5030407;28;20032;-23
2021/07/20 04:50:09;;;;;;;40.47;31.95;;;;;;;23.46;57.34;99410.28;5030134;28;20053;-22
2021/07/20 04:52:34;;;;;;;40.90;31.33;;;;;;;23.64;56.50;99393.97;5047896;28;20087;-22
2021/07/20 04:55:01;;;;;;;39.83;32.90;;;;;;;23.85;56.45;99399.56;5048006;28;20064;-22
2021/07/20 04:57:26;;;;;;;39.28;30.10;;;;;;;24.04;56.73;99408.13;5013800;28;20025;-23
2021/07/20 04:59:51;;;;;;;31.98;26.35;;;;;;;24.11;56.79;99404.13;5048500;28;20985;-22
2021/07/20 05:02:17;;;;;;;31.65;24.92;;;;;;;24.23;57.06;99404.22;5030030;28;20033;-22
2021/07/20 05:04:43;;;;;;;26.95;23.77;;;;;;;24.30;57.08;99398.31;5013293;28;20037;-22
2021/07/20 05:07:10;;;;;;;30.42;22.23;;;;;;;24.46;55.96;99402.88;5013672;28;20029;-22
2021/07/20 05:09:35;;;;;;;29.40;22.20;;;;;;;24.71;56.07;99402.31;5013698;28;20104;-22
2021/07/20 05:12:01;;;;;;;30.48;22.63;;;;;;;24.96;55.71;99414.16;5047768;28;20094;-22
2021/07/20 05:14:26;;;;;;;28.23;22.77;;;;;;;25.03;55.30;99417.19;5013205;28;20040;-22
2021/07/20 05:16:53;;;;;;;26.20;21.92;;;;;;;25.19;55.40;99426.38;5047551;28;20086;-22
2021/07/20 05:19:18;;;;;;;22.40;19.98;;;;;;;25.20;54.87;99418.97;5013495;28;20885;-22
2021/07/20 05:21:44;;;;;;;22.13;18.40;;;;;;;24.83;56.21;99411.34;5029756;28;20021;-22
2021/07/20 05:24:10;;;;;;;21.58;18.45;;;;;;;24.93;55.83;99420.28;5029826;28;20033;-22
2021/07/20 05:26:36;;;;;;;22.60;16.95;;;;;;;24.89;56.82;99430.25;5047286;28;20032;-22
2021/07/20 05:29:02;;;;;;;19.00;16.92;;;;;;;25.01;56.19;99422.19;5013304;28;20503;-22
2021/07/20 05:31:27;;;;;;;18.23;15.13;;;;;;;24.86;56.35;99437.97;5029565;28;20028;-22
2021/07/20 05:33:53;;;;;;;24.38;15.93;;;;;;;24.99;56.50;99433.41;5029886;28;20432;-22
2021/07/20 05:36:18;;;;;;;20.63;15.52;;;;;;;25.35;55.76;99442.16;5047666;28;20024;-22
2021/07/20 05:38:43;;;;;;;19.95;15.63;;;;;;;24.96;56.84;99441.44;5029732;28;20029;-22
2021/07/20 05:41:09;;;;;;;20.98;14.45;;;;;;;25.12;56.78;99453.38;5047388;28;20025;-22
2021/07/20 05:43:35;;;;;;;20.20;13.43;;;;;;;24.98;57.28;99444.66;5013294;28;20613;-22
2021/07/20 05:46:01;;;;;;;17.83;13.30;;;;;;;25.13;56.40;99446.81;5012937;28;20120;-22
2021/07/20 05:48:27;;;;;;;15.98;12.43;;;;;;;25.50;56.08;99455.22;5046829;28;20044;-22
2021/07/20 05:50:54;;;;;;;16.92;12.63;;;;;;;25.74;55.51;99453.72;5028808;28;20064;-22
2021/07/20 05:53:21;;;;;;;14.32;12.55;;;;;;;25.52;55.60;99452.97;5029365;28;20493;-22
2021/07/20 05:55:53;;;;;;;16.93;12.70;;;;;;;25.54;56.56;99449.88;5047170;28;20057;-22
2021/07/20 05:58:19;;;;;;;18.50;13.70;;;;;;;25.99;55.15;99455.44;5029096;28;20286;-23
2021/07/20 06:00:45;;;;;;;14.75;12.00;;;;;;;25.69;55.71;99451.22;5047102;28;20809;-22
2021/07/20 06:03:14;;;;;;;18.23;12.50;;;;;;;25.69;55.66;99437.56;5029253;28;20037;-22
2021/07/20 06:05:42;;;;;;;14.85;12.10;;;;;;;26.11;54.88;99451.94;5029201;28;20025;-22
2021/07/20 06:08:07;;;;;;;21.60;12.45;;;;;;;25.97;55.18;99441.31;5047286;28;20124;-22
2021/07/20 06:10:33;;;;;;;16.88;12.82;;;;;;;25.98;54.29;99445.66;5029070;28;20347;-22
2021/07/20 06:12:59;;;;;;;13.13;11.00;;;;;;;26.00;54.55;99448.03;5012696;28;20033;-22
2021/07/20 06:15:24;;;;;;;17.58;12.13;;;;;;;25.99;54.62;99428.13;5012846;28;20404;-22
2021/07/20 06:17:50;;;;;;;14.88;11.85;;;;;;;25.91;54.52;99444.59;5029113;28;20386;-22
2021/07/20 06:20:15;;;;;;;14.65;10.18;;;;;;;25.66;54.31;99447.19;5029051;28;20546;-22
2021/07/20 06:22:44;;;;;;;16.77;10.75;;;;;;;25.67;53.94;99444.16;5046830;28;20107;-22
2021/07/20 06:25:10;;;;;;;16.08;12.00;;;;;;;25.82;54.38;99442.72;5046847;28;20070;-22
2021/07/20 06:27:36;;;;;;;12.85;9.90;;;;;;;25.75;53.96;99449.88;5046824;28;20112;-22
2021/07/20 06:30:02;;;;;;;14.18;11.02;;;;;;;26.02;53.79;99449.31;5028997;28;20036;-22
2021/07/20 06:32:27;;;;;;;14.15;10.73;;;;;;;26.40;52.71;99453.72;5028809;28;20040;-22
2021/07/20 06:34:52;;;;;;;16.02;11.80;;;;;;;26.42;52.48;99432.31;5046790;28;20025;-22
2021/07/20 06:37:18;;;;;;;19.48;12.15;;;;;;;26.55;52.43;99454.19;5028948;28;20041;-22
2021/07/20 06:39:44;;;;;;;14.77;11.30;;;;;;;26.37;52.84;99442.66;5028897;28;20103;-22
2021/07/20 06:42:10;;;;;;;16.27;11.38;;;;;;;26.39;52.85;99446.63;5028928;28;20025;-22
2021/07/20 06:44:35;;;;;;;15.65;10.93;;;;;;;26.61;51.63;99450.13;5012862;28;20037;-22
2021/07/20 06:47:01;;;;;;;14.43;11.20;;;;;;;26.99;51.81;99451.69;5029363;28;20037;-22
2021/07/20 06:49:26;;;;;;;13.90;10.95;;;;;;;26.97;51.50;99443.00;5028395;28;20049;-22
2021/07/20 06:51:52;;;;;;;13.18;11.07;;;;;;;27.08;50.49;99443.38;5029127;28;20083;-22
2021/07/20 06:54:17;;;;;;;14.10;11.35;;;;;;;27.29;50.75;99448.69;5029204;28;20037;-22
2021/07/20 06:56:47;;;;;;;15.45;11.38;;;;;;;27.33;50.06;99433.19;5028968;28;20048;-22
2021/07/20 06:59:12;;;;;;;16.42;11.32;;;;;;;27.63;49.55;99441.88;5046824;28;20544;-22
2021/07/20 07:01:38;;;;;;;14.35;11.57;;;;;;;27.54;49.36;99447.47;5028762;28;20036;-22
2021/07/20 07:04:12;;;;;;;14.88;12.63;;;;;;;27.74;49.40;99414.75;5012376;28;20029;-22
2021/07/20 07:06:40;;;;;;;13.60;10.18;;;;;;;27.68;49.24;99438.06;5029097;28;20025;-22
2021/07/20 07:09:05;;;;;;;15.95;11.60;;;;;;;27.94;48.62;99432.94;5046696;28;20059;-22
2021/07/20 07:11:31;;;;;;;14.48;11.48;;;;;;;27.70;48.89;99449.47;5050367;28;20810;-22
2021/07/20 07:13:56;;;;;;;13.32;11.40;;;;;;;27.75;49.17;99443.75;5015811;28;20039;-22
2021/07/20 07:16:22;;;;;;;16.50;12.00;;;;;;;27.75;48.42;99444.53;5032362;28;20029;-22
2021/07/20 07:18:48;;;;;;;12.98;10.93;;;;;;;28.04;48.02;99442.59;5016032;28;20802;-22
2021/07/20 07:21:13;;;;;;;14.38;10.55;;;;;;;27.75;47.54;99416.38;5015915;28;20025;-22
2021/07/20 07:23:40;;;;;;;13.50;10.82;;;;;;;28.02;47.75;99437.47;5031998;28;20083;-22
2021/07/20 07:26:05;;;;;;;13.13;10.68;;;;;;;28.22;48.19;99434.84;5032219;28;20052;-22
2021/07/20 07:28:31;;;;;;;12.65;10.02;;;;;;;28.02;47.13;99437.47;5031918;28;20045;-22
2021/07/20 07:30:56;;;;;;;13.18;11.05;;;;;;;27.99;47.96;99427.22;5015329;28;20029;-22
2021/07/20 07:33:22;;;;;;;13.48;10.10;;;;;;;28.14;47.39;99444.81;5015532;28;20033;-22
2021/07/20 07:35:48;;;;;;;14.13;10.65;;;;;;;28.32;48.20;99436.25;5031977;28;20037;-22
2021/07/20 07:38:16;;;;;;;12.50;10.90;;;;;;;28.44;47.69;99447.13;5031867;28;20037;-22
2021/07/20 07:40:43;;;;;;;12.93;10.27;;;;;;;28.16;47.51;99437.03;5031981;28;20114;-22
2021/07/20 07:43:08;;;;;;;11.90;10.10;;;;;;;28.01;48.06;99448.78;5031595;28;20042;-22
2021/07/20 07:45:34;;;;;;;13.73;9.65;;;;;;;28.13;47.78;99445.16;5031677;28;20029;-22
2021/07/20 07:47:59;;;;;;;13.05;10.95;;;;;;;28.36;47.35;99437.13;5049320;28;20036;-22
2021/07/20 07:50:25;;;;;;;15.20;10.32;;;;;;;28.49;47.13;99433.16;5031146;28;20836;-22
2021/07/20 07:52:52;;;;;;;14.48;10.73;;;;;;;28.70;46.09;99448.56;5049481;28;20036;-22
2021/07/20 07:55:21;;;;;;;13.30;10.32;;;;;;;28.90;45.54;99449.44;5015403;28;20040;-22
2021/07/20 07:57:47;;;;;;;14.13;10.32;;;;;;;28.88;45.99;99451.72;5031848;28;20028;-22
2021/07/20 08:00:13;;;;;;;15.98;11.52;;;;;;;28.98;45.31;99437.47;5031357;28;20515;-22
2021/07/20 08:02:39;;;;;;;12.70;10.18;;;;;;;29.16;44.88;99441.41;5031236;28;20029;-22
2021/07/20 08:05:07;;;;;;;11.45;10.18;;;;;;;28.74;45.10;99422.81;5015252;28;20777;-23
2021/07/20 08:07:33;;;;;;;13.40;10.13;;;;;;;29.11;44.85;99424.44;5049088;28;20085;-22
2021/07/20 08:09:59;;;;;;;12.10;10.02;;;;;;;29.16;44.33;99438.69;5014872;28;20041;-22
2021/07/20 08:12:26;;;;;;;13.40;9.63;;;;;;;29.22;43.32;99420.75;5031052;28;20033;-22
2021/07/20 08:14:51;;;;;;;11.43;8.98;;;;;;;29.24;43.39;99429.44;5031493;28;20041;-22
2021/07/20 08:17:17;;;;;;;13.75;9.98;;;;;;;29.18;43.23;99435.56;5014831;28;20420;-22
2021/07/20 08:19:42;;;;;;;12.15;8.80;;;;;;;29.75;41.70;99435.94;5014915;28;20021;-22
2021/07/20 08:22:11;;;;;;;12.32;9.48;;;;;;;30.00;42.28;99414.44;5030486;28;20029;-22
2021/07/20 08:24:39;;;;;;;12.98;9.75;;;;;;;30.00;42.34;99423.47;5048838;28;20920;-22
2021/07/20 08:27:20;;;;;;;14.35;9.45;;;;;;;29.56;43.12;99421.03;5014914;28;20044;-22
2021/07/20 08:29:46;;;;;;;12.00;9.18;;;;;;;30.20;42.21;99417.94;5048789;28;20037;-22
2021/07/20 08:32:14;;;;;;;12.93;9.85;;;;;;;30.32;42.08;99420.53;5014494;28;20040;-22
2021/07/20 08:35:01;;;;;;;12.07;9.50;;;;;;;30.44;41.75;99401.06;5014277;28;20108;-22
2021/07/20 08:37:27;;;;;;;11.55;9.52;;;;;;;30.34;43.50;99389.88;5030925;28;20496;-22
2021/07/20 08:39:53;;;;;;;11.97;9.13;;;;;;;30.74;40.50;99414.09;5030875;28;20037;-22
2021/07/20 08:42:26;;;;;;;12.82;9.27;;;;;;;30.87;39.86;99408.34;5048333;28;20028;-22
2021/07/20 08:45:45;;;;;;;10.60;9.32;;;;;;;31.00;39.26;99399.53;5014583;28;20049;-22
2021/07/20 08:48:21;;;;;;;14.25;10.02;;;;;;;30.68;40.38;99409.28;4967160;28;20089;-22
2021/07/20 08:50:57;;;;;;;11.15;8.82;;;;;;;30.60;41.00;99416.63;4965570;28;20058;-22
2021/07/20 08:53:30;;;;;;;12.05;9.73;;;;;;;30.39;41.68;99406.88;5007909;28;20124;-22
2021/07/20 08:55:56;;;;;;;14.00;10.15;;;;;;;30.61;41.24;99404.47;5030408;28;20515;-22
2021/07/20 08:58:29;;;;;;;12.30;8.93;;;;;;;30.70;39.81;99407.72;5013743;28;20564;-22
2021/07/20 09:01:21;;;;;;;12.05;8.98;;;;;;;30.96;38.79;99408.94;5030320;28;20037;-22
2021/07/20 09:03:55;;;;;;;13.10;9.77;;;;;;;31.18;39.46;99410.78;5009467;28;20080;-22
2021/07/20 09:06:29;;;;;;;11.80;8.38;;;;;;;30.35;40.10;99400.53;5030315;28;20043;-22
2021/07/20 09:09:12;;;;;;;12.73;8.80;;;;;;;30.82;40.39;99406.72;5030332;28;20511;-22
2021/07/20 09:11:45;;;;;;;15.60;9.90;;;;;;;30.96;39.33;99401.44;5047774;28;20489;-22
2021/07/20 09:14:33;;;;;;;11.32;9.27;;;;;;;31.24;38.64;99409.31;5047841;28;20130;-22
2021/07/20 09:17:11;;;;;;;14.23;10.27;;;;;;;31.27;39.09;99404.22;5031316;28;20029;-22
2021/07/20 09:19:58;;;;;;;16.63;9.70;;;;;;;31.04;38.55;99403.13;5048067;28;20032;-22
2021/07/20 09:22:40;;;;;;;13.10;9.68;;;;;;;31.02;38.79;99399.19;5047543;28;20127;-22
2021/07/20 09:25:13;;;;;;;12.82;9.68;;;;;;;30.99;39.44;99395.19;5030144;28;20060;-22
2021/07/20 09:28:09;;;;;;;11.35;9.80;;;;;;;31.27;38.27;99401.44;5030497;28;20029;-22
2021/07/20 09:30:39;;;;;;;12.60;10.38;;;;;;;31.76;37.12;99400.47;5032083;28;20025;-22
2021/07/20 09:33:22;;;;;;;13.68;9.80;;;;;;;31.93;37.45;99399.81;5012870;28;20056;-22
2021/07/20 09:35:56;;;;;;;11.02;9.55;;;;;;;31.94;35.50;99401.44;5047629;28;20021;-22
2021/07/20 09:38:43;;;;;;;10.07;9.02;;;;;;;32.43;35.47;99389.25;5014158;28;20064;-22
2021/07/20 09:41:18;;;;;;;11.10;9.55;;;;;;;32.40;35.70;99401.03;5047291;28;20519;-22
2021/07/20 09:43:54;;;;;;;13.35;10.07;;;;;;;32.39;33.95;99399.47;5047639;28;20123;-22
2021/07/20 09:46:35;;;;;;;11.18;10.07;;;;;;;33.11;34.42;99386.16;5047104;28;20029;-22
2021/07/20 09:49:21;;;;;;;12.45;9.65;;;;;;;32.92;34.23;99397.47;5030421;28;20033;-22
2021/07/20 09:51:49;;;;;;;10.77;9.05;;;;;;;32.86;32.24;99393.50;5029541;28;20048;-22
2021/07/20 09:54:36;;;;;;;12.43;9.23;;;;;;;32.63;32.74;99380.72;5029818;28;20059;-22
2021/07/20 09:57:13;;;;;;;12.18;8.88;;;;;;;32.60;34.29;99381.50;4996379;28;20029;-22
2021/07/20 10:00:03;;;;;;;10.82;8.88;;;;;;;33.16;33.17;99391.31;5047093;28;20037;-22
2021/07/20 10:02:46;;;;;;;11.82;9.30;;;;;;;32.88;33.46;99380.09;5046824;28;20036;-22
2021/07/20 10:05:18;;;;;;;8.98;7.50;;;;;;;32.89;32.58;99381.66;5031136;28;20107;-22
2021/07/20 10:07:52;;;;;;;11.43;8.10;;;;;;;33.28;33.19;99378.31;5029926;28;20543;-22
2021/07/20 10:10:37;;;;;;;11.18;7.93;;;;;;;33.54;30.87;99377.22;5029691;28;20458;-22
2021/07/20 10:13:35;;;;;;;11.40;8.65;;;;;;;33.46;32.33;99375.63;5029425;28;20431;-22
2021/07/20 10:16:13;;;;;;;9.40;7.93;;;;;;;33.59;32.09;99369.34;4991941;28;20037;-22
2021/07/20 10:18:41;;;;;;;11.57;8.30;;;;;;;33.28;32.90;99365.28;5029063;28;20040;-22
2021/07/20 10:21:06;;;;;;;10.23;8.35;;;;;;;33.13;32.73;99361.69;5046868;28;20137;-22
2021/07/20 10:23:46;;;;;;;11.43;7.97;;;;;;;33.33;32.46;99345.56;5046847;28;20044;-22
2021/07/20 10:26:16;;;;;;;12.75;8.20;;;;;;;32.94;32.15;99367.50;5030402;28;20538;-22
2021/07/20 10:29:06;;;;;;;9.98;7.97;;;;;;;32.94;31.56;99367.50;5028992;28;20399;-22
2021/07/20 10:31:49;;;;;;;11.20;8.52;;;;;;;33.30;31.46;99362.13;5046698;28;20036;-22
2021/07/20 10:34:24;;;;;;;11.32;8.30;;;;;;;33.69;31.42;99362.25;5046735;28;20036;-22
2021/07/20 10:36:54;;;;;;;11.13;8.00;;;;;;;34.17;30.67;99358.38;5047027;28;20039;-22
2021/07/20 10:39:21;;;;;;;10.57;7.70;;;;;;;33.96;29.50;99353.59;5029692;28;20106;-22
2021/07/20 10:42:05;;;;;;;10.88;8.38;;;;;;;33.60;30.55;99365.38;5012593;28;20063;-22
2021/07/20 10:44:56;;;;;;;10.52;7.80;;;;;;;33.41;30.52;99344.41;5048932;28;20136;-22
2021/07/20 10:47:24;;;;;;;12.38;7.78;;;;;;;33.89;31.00;99332.25;5050588;28;20484;-22
2021/07/20 10:50:03;;;;;;;9.43;7.53;;;;;;;33.75;30.98;99327.50;5016004;28;20053;-22
2021/07/20 10:52:36;;;;;;;12.55;7.80;;;;;;;34.42;29.69;99328.69;5033358;28;20033;-22
2021/07/20 10:55:30;;;;;;;10.27;7.50;;;;;;;34.88;29.00;99324.25;5033358;28;20036;-22
2021/07/20 10:58:16;;;;;;;11.43;8.13;;;;;;;34.96;28.74;99336.88;5037987;28;20540;-22
2021/07/20 11:01:03;;;;;;;9.80;7.78;;;;;;;34.45;28.25;99329.06;5033474;28;20028;-22
2021/07/20 11:03:55;;;;;;;12.20;7.53;;;;;;;34.29;27.86;99316.47;5034984;28;20040;-22
2021/07/20 11:06:20;;;;;;;9.38;7.53;;;;;;;34.50;27.98;99323.13;5024849;28;20057;-22
2021/07/20 11:08:47;;;;;;;10.60;8.02;;;;;;;34.39;28.00;99320.41;5032437;28;20056;-22
2021/07/20 11:11:17;;;;;;;11.02;8.32;;;;;;;34.64;28.63;99309.25;5016067;28;20025;-22
2021/07/20 11:13:42;;;;;;;10.95;8.13;;;;;;;35.00;27.82;99312.72;5033007;28;20029;-22
2021/07/20 11:16:09;;;;;;;10.40;7.70;;;;;;;35.52;26.99;99322.34;5015826;28;20420;-22
2021/07/20 11:18:36;;;;;;;10.02;8.07;;;;;;;35.70;27.66;99319.47;5016187;28;20537;-22
2021/07/20 11:21:02;;;;;;;9.25;7.55;;;;;;;34.95;27.24;99320.63;5016629;28;20849;-22
2021/07/20 11:23:36;;;;;;;9.35;7.70;;;;;;;35.04;27.76;99314.66;5015915;28;20037;-22
2021/07/20 11:26:02;;;;;;;10.43;7.65;;;;;;;35.67;26.60;99300.88;5016253;28;20036;-22
2021/07/20 11:28:28;;;;;;;12.00;8.07;;;;;;;36.11;26.45;99304.84;5015356;28;20037;-22
2021/07/20 11:30:54;;;;;;;10.85;8.27;;;;;;;36.11;26.02;99307.63;5032042;28;20040;-22
2021/07/20 11:33:26;;;;;;;9.73;7.25;;;;;;;35.87;27.65;99309.44;5032478;28;20028;-22
2021/07/20 11:35:53;;;;;;;11.45;7.70;;;;;;;35.66;26.02;99302.06;5051232;28;20025;-22